Flint, MI (48552)

6:32 PM EDT on July 29, 2015 (GMT -0400)
Flint Twp / Dye Elementary | | Change Station
CLOSE
Current Station
Personal Weather Station
Location: Flint, MI
Elevation: 741 ft
Nearby Weather Stations

Elev 741 ft 43.01 °N, 83.76 °W | Updated 2 minutes ago

Partly Cloudy
Partly Cloudy
91.9 °F
Feels Like 101 °F
N
7.3
Wind Variable Wind from WNW

Today
High -- | Low -- °F
--% Chance of Precip.
Yesterday
High -- | Low -- °F
Precip. -- in
6:22 AM 8:59 PM
Waxing Gibbous, 97% visible
Pressure 29.84 in
Visibility 10.0 miles
Clouds Few 8000 ft
Heat Index 101 °F
Dew Point 73 °F
Humidity 54%
Rainfall 0.08 in
Snow Depth Not available.
UV 3 out of 12
Pollen 6.40 out of 12
Air Quality Not available.
Flu Activity Not available.
METAR KFNT 292153Z 28020KT 10SM FEW080 32/22 A2986 RMK AO2 LTG DSNT E AND SE SLP105 T03170222

More Conditions Fewer Conditions

Pressure 29.84 in
Visibility 10.0 miles
Clouds Few 8000 ft
Heat Index 101 °F
Dew Point 73 °F
Humidity 54%
Rainfall 0.08 in
Snow Depth Not available.
UV 3 out of 12
Pollen 6.40 out of 12
Air Quality Not available.
Flu Activity Not available.
METAR KFNT 292153Z 28020KT 10SM FEW080 32/22 A2986 RMK AO2 LTG DSNT E AND SE SLP105 T03170222

More Conditions Fewer Conditions

10-Day Weather Forecast

×

Almanac

Astronomy

Jul. 29, 2015 Rise Set
Actual Time
Civil Twilight
Nautical Twilight
Astronomical Twilight
Moon
Length of Visible Light
Length of Day
Tomorrow will be .
, % of the Moon is Illuminated

Today's Extremes

State Highs State Lows

Community

WunderPhotos

Upload Photos

1,842,171 photos uploaded!

WunderBlogs® & News

Nearby

Air Quality

  Air Quality AQ Index Pollutant
Not available.

Snow Depth

Station Depth Elevation

Earthquake Activity

City Distance Mag. Time & Date
Minimum magnitude displayed is 2.5.

Coastal Water Temperatures

Place Temperature

Stations

Nearby Weather Stations

Station Location Temp. Windchill Dew Point Humidity Wind Precip. Elev Updated Type